sensor_id;sensor_type;location;lat;lon;timestamp;temperature;humidity
38788;DHT22;24536;45.488;12.238;2022-09-29T00:00:31;17.60;90.80
38788;DHT22;24536;45.488;12.238;2022-09-29T00:02:57;17.60;90.80
38788;DHT22;24536;45.488;12.238;2022-09-29T00:05:23;17.40;91.20
38788;DHT22;24536;45.488;12.238;2022-09-29T00:07:49;17.40;91.30
38788;DHT22;24536;45.488;12.238;2022-09-29T00:10:15;17.20;91.60
38788;DHT22;24536;45.488;12.238;2022-09-29T00:12:40;17.30;91.80
38788;DHT22;24536;45.488;12.238;2022-09-29T00:15:06;17.30;91.40
38788;DHT22;24536;45.488;12.238;2022-09-29T00:17:32;17.30;91.40
38788;DHT22;24536;45.488;12.238;2022-09-29T00:19:58;17.20;91.80
38788;DHT22;24536;45.488;12.238;2022-09-29T00:22:24;17.10;92.10
38788;DHT22;24536;45.488;12.238;2022-09-29T00:24:49;17.10;91.90
38788;DHT22;24536;45.488;12.238;2022-09-29T00:27:16;17.10;92.00
38788;DHT22;24536;45.488;12.238;2022-09-29T00:29:42;17.10;92.10
38788;DHT22;24536;45.488;12.238;2022-09-29T00:32:08;17.10;92.00
38788;DHT22;24536;45.488;12.238;2022-09-29T00:34:34;17.00;92.50
38788;DHT22;24536;45.488;12.238;2022-09-29T00:37:00;16.80;92.70
38788;DHT22;24536;45.488;12.238;2022-09-29T00:39:26;16.90;92.70
38788;DHT22;24536;45.488;12.238;2022-09-29T00:41:51;16.90;92.70
38788;DHT22;24536;45.488;12.238;2022-09-29T00:46:50;17.00;92.40
38788;DHT22;24536;45.488;12.238;2022-09-29T00:49:19;17.10;92.30
38788;DHT22;24536;45.488;12.238;2022-09-29T00:51:54;17.10;92.20
38788;DHT22;24536;45.488;12.238;2022-09-29T00:54:24;17.10;92.30
38788;DHT22;24536;45.488;12.238;2022-09-29T00:56:54;17.00;92.70
38788;DHT22;24536;45.488;12.238;2022-09-29T00:59:30;17.00;92.80
38788;DHT22;24536;45.488;12.238;2022-09-29T01:01:57;16.90;92.90
38788;DHT22;24536;45.488;12.238;2022-09-29T01:04:23;16.90;92.90
38788;DHT22;24536;45.488;12.238;2022-09-29T01:06:52;16.80;93.30
38788;DHT22;24536;45.488;12.238;2022-09-29T01:09:22;16.80;93.20
38788;DHT22;24536;45.488;12.238;2022-09-29T01:11:49;16.80;93.20
38788;DHT22;24536;45.488;12.238;2022-09-29T01:14:20;16.70;93.40
38788;DHT22;24536;45.488;12.238;2022-09-29T01:16:46;16.70;93.50
38788;DHT22;24536;45.488;12.238;2022-09-29T01:22:52;16.60;93.50
38788;DHT22;24536;45.488;12.238;2022-09-29T01:25:42;16.60;93.70
38788;DHT22;24536;45.488;12.238;2022-09-29T01:36:47;16.80;93.60
38788;DHT22;24536;45.488;12.238;2022-09-29T01:39:22;16.50;94.10
38788;DHT22;24536;45.488;12.238;2022-09-29T01:44:41;16.70;93.60
38788;DHT22;24536;45.488;12.238;2022-09-29T01:47:19;16.90;93.40
38788;DHT22;24536;45.488;12.238;2022-09-29T01:49:51;17.00;93.20
38788;DHT22;24536;45.488;12.238;2022-09-29T01:52:21;17.10;93.10
38788;DHT22;24536;45.488;12.238;2022-09-29T01:54:56;17.10;92.90
38788;DHT22;24536;45.488;12.238;2022-09-29T01:57:33;17.00;93.00
38788;DHT22;24536;45.488;12.238;2022-09-29T02:00:10;16.90;93.50
38788;DHT22;24536;45.488;12.238;2022-09-29T02:02:43;16.70;93.90
38788;DHT22;24536;45.488;12.238;2022-09-29T02:05:22;16.80;93.80
38788;DHT22;24536;45.488;12.238;2022-09-29T02:07:49;16.80;93.60
38788;DHT22;24536;45.488;12.238;2022-09-29T02:10:20;16.90;93.40
38788;DHT22;24536;45.488;12.238;2022-09-29T02:12:48;17.00;93.30
38788;DHT22;24536;45.488;12.238;2022-09-29T02:15:20;17.10;93.20
38788;DHT22;24536;45.488;12.238;2022-09-29T02:17:49;17.10;93.00
38788;DHT22;24536;45.488;12.238;2022-09-29T02:20:18;17.20;92.90
38788;DHT22;24536;45.488;12.238;2022-09-29T02:22:44;17.20;92.90
38788;DHT22;24536;45.488;12.238;2022-09-29T02:25:12;17.30;92.80
38788;DHT22;24536;45.488;12.238;2022-09-29T02:27:40;17.30;92.70
38788;DHT22;24536;45.488;12.238;2022-09-29T02:30:06;17.30;92.60
38788;DHT22;24536;45.488;12.238;2022-09-29T02:32:34;17.30;92.60
38788;DHT22;24536;45.488;12.238;2022-09-29T02:35:03;17.30;92.50
38788;DHT22;24536;45.488;12.238;2022-09-29T02:43:22;17.40;92.40
38788;DHT22;24536;45.488;12.238;2022-09-29T02:45:55;17.40;92.40
38788;DHT22;24536;45.488;12.238;2022-09-29T02:51:35;17.40;92.40
38788;DHT22;24536;45.488;12.238;2022-09-29T02:57:10;17.20;92.60
38788;DHT22;24536;45.488;12.238;2022-09-29T03:00:00;17.10;92.90
38788;DHT22;24536;45.488;12.238;2022-09-29T03:02:31;16.90;93.30
38788;DHT22;24536;45.488;12.238;2022-09-29T03:04:57;16.90;93.20
38788;DHT22;24536;45.488;12.238;2022-09-29T03:07:23;17.00;93.10
38788;DHT22;24536;45.488;12.238;2022-09-29T03:09:48;17.00;93.00
38788;DHT22;24536;45.488;12.238;2022-09-29T03:12:14;17.10;92.90
38788;DHT22;24536;45.488;12.238;2022-09-29T03:14:41;17.20;92.80
38788;DHT22;24536;45.488;12.238;2022-09-29T03:17:07;17.20;92.70
38788;DHT22;24536;45.488;12.238;2022-09-29T03:19:33;17.30;92.60
38788;DHT22;24536;45.488;12.238;2022-09-29T03:21:58;17.20;92.60
38788;DHT22;24536;45.488;12.238;2022-09-29T03:24:24;17.20;92.60
38788;DHT22;24536;45.488;12.238;2022-09-29T03:26:50;17.20;92.60
38788;DHT22;24536;45.488;12.238;2022-09-29T03:29:16;17.20;92.60
38788;DHT22;24536;45.488;12.238;2022-09-29T03:31:42;17.20;92.60
38788;DHT22;24536;45.488;12.238;2022-09-29T03:34:20;17.20;92.50
38788;DHT22;24536;45.488;12.238;2022-09-29T03:36:46;17.20;92.50
38788;DHT22;24536;45.488;12.238;2022-09-29T03:39:11;17.20;92.50
38788;DHT22;24536;45.488;12.238;2022-09-29T03:41:37;17.20;92.60
38788;DHT22;24536;45.488;12.238;2022-09-29T03:44:03;17.20;92.60
38788;DHT22;24536;45.488;12.238;2022-09-29T03:46:28;17.20;92.50
38788;DHT22;24536;45.488;12.238;2022-09-29T03:48:54;17.10;92.50
38788;DHT22;24536;45.488;12.238;2022-09-29T03:51:21;17.00;92.70
38788;DHT22;24536;45.488;12.238;2022-09-29T03:53:46;17.00;92.70
38788;DHT22;24536;45.488;12.238;2022-09-29T03:56:12;17.00;92.60
38788;DHT22;24536;45.488;12.238;2022-09-29T03:58:38;17.00;92.60
38788;DHT22;24536;45.488;12.238;2022-09-29T04:01:04;17.00;92.60
38788;DHT22;24536;45.488;12.238;2022-09-29T04:03:29;17.00;92.60
38788;DHT22;24536;45.488;12.238;2022-09-29T04:05:55;17.10;92.50
38788;DHT22;24536;45.488;12.238;2022-09-29T04:08:21;17.00;92.50
38788;DHT22;24536;45.488;12.238;2022-09-29T04:10:47;17.00;92.60
38788;DHT22;24536;45.488;12.238;2022-09-29T04:13:13;16.90;92.60
38788;DHT22;24536;45.488;12.238;2022-09-29T04:15:39;17.00;92.60
38788;DHT22;24536;45.488;12.238;2022-09-29T04:18:05;17.00;92.60
38788;DHT22;24536;45.488;12.238;2022-09-29T04:20:31;17.00;92.60
38788;DHT22;24536;45.488;12.238;2022-09-29T04:22:57;17.10;92.70
38788;DHT22;24536;45.488;12.238;2022-09-29T04:25:23;17.00;92.40
38788;DHT22;24536;45.488;12.238;2022-09-29T04:27:49;17.00;92.30
38788;DHT22;24536;45.488;12.238;2022-09-29T04:30:15;16.90;92.30
38788;DHT22;24536;45.488;12.238;2022-09-29T04:32:41;16.90;92.40
38788;DHT22;24536;45.488;12.238;2022-09-29T04:35:07;16.90;92.40
38788;DHT22;24536;45.488;12.238;2022-09-29T04:37:33;16.90;92.50
38788;DHT22;24536;45.488;12.238;2022-09-29T04:39:59;16.90;92.50
38788;DHT22;24536;45.488;12.238;2022-09-29T04:42:25;16.90;92.50
38788;DHT22;24536;45.488;12.238;2022-09-29T04:44:50;16.90;92.50
38788;DHT22;24536;45.488;12.238;2022-09-29T04:47:16;16.90;92.50
38788;DHT22;24536;45.488;12.238;2022-09-29T04:49:42;16.90;92.50
38788;DHT22;24536;45.488;12.238;2022-09-29T04:52:10;16.90;92.50
38788;DHT22;24536;45.488;12.238;2022-09-29T04:54:38;16.90;92.50
38788;DHT22;24536;45.488;12.238;2022-09-29T04:57:05;16.90;92.50
38788;DHT22;24536;45.488;12.238;2022-09-29T04:59:32;16.80;92.50
38788;DHT22;24536;45.488;12.238;2022-09-29T05:01:57;16.80;92.50
38788;DHT22;24536;45.488;12.238;2022-09-29T05:04:23;16.80;92.50
38788;DHT22;24536;45.488;12.238;2022-09-29T05:06:49;16.90;92.50
38788;DHT22;24536;45.488;12.238;2022-09-29T05:09:15;16.90;92.50
38788;DHT22;24536;45.488;12.238;2022-09-29T05:11:41;16.70;92.60
38788;DHT22;24536;45.488;12.238;2022-09-29T05:14:07;16.70;92.70
38788;DHT22;24536;45.488;12.238;2022-09-29T05:16:34;16.70;92.60
38788;DHT22;24536;45.488;12.238;2022-09-29T05:19:00;16.70;92.50
38788;DHT22;24536;45.488;12.238;2022-09-29T05:21:26;16.80;92.50
38788;DHT22;24536;45.488;12.238;2022-09-29T05:23:52;16.80;92.50
38788;DHT22;24536;45.488;12.238;2022-09-29T05:26:18;16.80;92.50
38788;DHT22;24536;45.488;12.238;2022-09-29T05:28:45;16.80;92.50
38788;DHT22;24536;45.488;12.238;2022-09-29T05:31:12;16.80;92.40
38788;DHT22;24536;45.488;12.238;2022-09-29T05:33:38;16.80;92.40
38788;DHT22;24536;45.488;12.238;2022-09-29T05:36:05;16.90;92.40
38788;DHT22;24536;45.488;12.238;2022-09-29T05:38:37;16.90;92.40
38788;DHT22;24536;45.488;12.238;2022-09-29T05:41:04;16.90;92.30
38788;DHT22;24536;45.488;12.238;2022-09-29T05:43:30;17.00;92.30
38788;DHT22;24536;45.488;12.238;2022-09-29T05:46:00;17.00;92.20
38788;DHT22;24536;45.488;12.238;2022-09-29T05:48:27;16.90;92.20
38788;DHT22;24536;45.488;12.238;2022-09-29T05:50:55;16.90;92.20
38788;DHT22;24536;45.488;12.238;2022-09-29T05:53:21;16.90;92.30
38788;DHT22;24536;45.488;12.238;2022-09-29T05:55:46;16.90;92.30
38788;DHT22;24536;45.488;12.238;2022-09-29T05:58:12;17.00;92.40
38788;DHT22;24536;45.488;12.238;2022-09-29T06:00:38;17.00;92.40
38788;DHT22;24536;45.488;12.238;2022-09-29T06:03:04;17.00;92.40
38788;DHT22;24536;45.488;12.238;2022-09-29T06:05:30;17.00;92.40
38788;DHT22;24536;45.488;12.238;2022-09-29T06:07:56;17.10;92.40
38788;DHT22;24536;45.488;12.238;2022-09-29T06:10:21;17.10;92.40
38788;DHT22;24536;45.488;12.238;2022-09-29T06:12:47;17.20;92.20
38788;DHT22;24536;45.488;12.238;2022-09-29T06:15:13;17.30;92.10
38788;DHT22;24536;45.488;12.238;2022-09-29T06:17:38;17.30;92.10
38788;DHT22;24536;45.488;12.238;2022-09-29T06:20:05;17.30;92.10
38788;DHT22;24536;45.488;12.238;2022-09-29T06:22:34;17.30;91.90
38788;DHT22;24536;45.488;12.238;2022-09-29T06:24:59;17.20;91.90
38788;DHT22;24536;45.488;12.238;2022-09-29T06:27:25;17.30;92.00
38788;DHT22;24536;45.488;12.238;2022-09-29T06:29:50;17.30;91.80
38788;DHT22;24536;45.488;12.238;2022-09-29T06:32:16;17.20;91.90
38788;DHT22;24536;45.488;12.238;2022-09-29T06:34:42;17.30;92.00
38788;DHT22;24536;45.488;12.238;2022-09-29T06:37:26;17.30;91.90
38788;DHT22;24536;45.488;12.238;2022-09-29T06:40:06;17.30;91.90
38788;DHT22;24536;45.488;12.238;2022-09-29T06:42:33;17.40;91.90
38788;DHT22;24536;45.488;12.238;2022-09-29T06:44:59;17.30;91.90
38788;DHT22;24536;45.488;12.238;2022-09-29T06:47:25;17.40;91.90
38788;DHT22;24536;45.488;12.238;2022-09-29T06:49:51;17.40;92.00
38788;DHT22;24536;45.488;12.238;2022-09-29T06:52:17;17.50;92.00
38788;DHT22;24536;45.488;12.238;2022-09-29T06:54:43;17.60;91.90
38788;DHT22;24536;45.488;12.238;2022-09-29T06:57:09;17.70;91.80
38788;DHT22;24536;45.488;12.238;2022-09-29T06:59:35;17.70;91.50
38788;DHT22;24536;45.488;12.238;2022-09-29T07:02:00;17.60;91.40
38788;DHT22;24536;45.488;12.238;2022-09-29T07:04:26;17.70;91.50
38788;DHT22;24536;45.488;12.238;2022-09-29T07:06:52;17.60;91.50
38788;DHT22;24536;45.488;12.238;2022-09-29T07:09:18;17.70;91.40
38788;DHT22;24536;45.488;12.238;2022-09-29T07:11:47;17.60;91.00
38788;DHT22;24536;45.488;12.238;2022-09-29T07:14:14;17.70;91.20
38788;DHT22;24536;45.488;12.238;2022-09-29T07:16:40;17.70;91.20
38788;DHT22;24536;45.488;12.238;2022-09-29T07:19:06;17.80;91.20
38788;DHT22;24536;45.488;12.238;2022-09-29T07:21:32;17.90;91.00
38788;DHT22;24536;45.488;12.238;2022-09-29T07:23:57;17.90;90.50
38788;DHT22;24536;45.488;12.238;2022-09-29T07:26:23;18.00;90.50
38788;DHT22;24536;45.488;12.238;2022-09-29T07:28:49;18.00;90.70
38788;DHT22;24536;45.488;12.238;2022-09-29T07:31:17;18.20;90.80
38788;DHT22;24536;45.488;12.238;2022-09-29T07:33:47;18.30;90.70
38788;DHT22;24536;45.488;12.238;2022-09-29T07:36:15;18.50;90.50
38788;DHT22;24536;45.488;12.238;2022-09-29T07:38:40;18.60;90.50
38788;DHT22;24536;45.488;12.238;2022-09-29T07:41:10;18.80;90.30
38788;DHT22;24536;45.488;12.238;2022-09-29T07:43:36;18.80;90.20
38788;DHT22;24536;45.488;12.238;2022-09-29T07:46:03;19.00;90.10
38788;DHT22;24536;45.488;12.238;2022-09-29T07:48:30;19.10;90.00
38788;DHT22;24536;45.488;12.238;2022-09-29T07:51:22;19.20;89.40
38788;DHT22;24536;45.488;12.238;2022-09-29T07:53:49;19.30;89.20
38788;DHT22;24536;45.488;12.238;2022-09-29T07:56:19;19.40;89.00
38788;DHT22;24536;45.488;12.238;2022-09-29T07:58:47;19.50;88.80
38788;DHT22;24536;45.488;12.238;2022-09-29T08:01:15;19.60;88.70
38788;DHT22;24536;45.488;12.238;2022-09-29T08:03:48;19.70;88.50
38788;DHT22;24536;45.488;12.238;2022-09-29T08:06:14;19.70;88.20
38788;DHT22;24536;45.488;12.238;2022-09-29T08:08:41;19.70;86.60
38788;DHT22;24536;45.488;12.238;2022-09-29T08:11:09;19.70;87.40
38788;DHT22;24536;45.488;12.238;2022-09-29T08:13:36;19.70;87.50
38788;DHT22;24536;45.488;12.238;2022-09-29T08:16:04;19.80;87.50
38788;DHT22;24536;45.488;12.238;2022-09-29T08:18:31;19.70;87.40
38788;DHT22;24536;45.488;12.238;2022-09-29T08:20:58;19.80;87.60
38788;DHT22;24536;45.488;12.238;2022-09-29T08:23:23;19.80;87.50
38788;DHT22;24536;45.488;12.238;2022-09-29T08:25:57;19.80;87.60
38788;DHT22;24536;45.488;12.238;2022-09-29T08:28:23;19.90;87.70
38788;DHT22;24536;45.488;12.238;2022-09-29T08:30:49;19.90;87.60
38788;DHT22;24536;45.488;12.238;2022-09-29T08:33:14;20.00;87.50
38788;DHT22;24536;45.488;12.238;2022-09-29T08:35:40;20.00;87.40
38788;DHT22;24536;45.488;12.238;2022-09-29T08:38:06;20.00;87.60
38788;DHT22;24536;45.488;12.238;2022-09-29T08:40:32;20.00;87.60
38788;DHT22;24536;45.488;12.238;2022-09-29T08:43:15;20.00;86.80
38788;DHT22;24536;45.488;12.238;2022-09-29T08:45:52;19.90;87.00
38788;DHT22;24536;45.488;12.238;2022-09-29T08:48:22;19.90;87.10
38788;DHT22;24536;45.488;12.238;2022-09-29T08:51:00;19.90;86.50
38788;DHT22;24536;45.488;12.238;2022-09-29T08:53:31;19.90;86.90
38788;DHT22;24536;45.488;12.238;2022-09-29T08:56:02;19.90;87.20
38788;DHT22;24536;45.488;12.238;2022-09-29T08:58:30;20.00;87.30
38788;DHT22;24536;45.488;12.238;2022-09-29T09:17:02;20.90;86.20
38788;DHT22;24536;45.488;12.238;2022-09-29T09:25:22;21.40;85.20
38788;DHT22;24536;45.488;12.238;2022-09-29T09:28:15;21.60;85.00
38788;DHT22;24536;45.488;12.238;2022-09-29T09:34:12;21.90;84.20
38788;DHT22;24536;45.488;12.238;2022-09-29T09:36:36;22.10;84.10
38788;DHT22;24536;45.488;12.238;2022-09-29T09:39:15;22.30;83.30
38788;DHT22;24536;45.488;12.238;2022-09-29T09:41:43;22.50;83.20
38788;DHT22;24536;45.488;12.238;2022-09-29T09:47:02;22.90;82.60
38788;DHT22;24536;45.488;12.238;2022-09-29T09:49:34;23.10;82.50
38788;DHT22;24536;45.488;12.238;2022-09-29T09:52:11;23.30;82.00
38788;DHT22;24536;45.488;12.238;2022-09-29T10:02:50;23.90;80.40
38788;DHT22;24536;45.488;12.238;2022-09-29T10:05:22;23.90;78.80
38788;DHT22;24536;45.488;12.238;2022-09-29T10:07:51;23.90;77.30
38788;DHT22;24536;45.488;12.238;2022-09-29T10:10:23;23.80;78.70
38788;DHT22;24536;45.488;12.238;2022-09-29T10:15:43;23.60;79.00
38788;DHT22;24536;45.488;12.238;2022-09-29T10:20:38;23.30;78.50
38788;DHT22;24536;45.488;12.238;2022-09-29T10:23:31;23.10;78.50
38788;DHT22;24536;45.488;12.238;2022-09-29T10:26:16;22.90;79.60
38788;DHT22;24536;45.488;12.238;2022-09-29T10:28:56;22.80;80.00
38788;DHT22;24536;45.488;12.238;2022-09-29T10:31:33;22.70;80.30
38788;DHT22;24536;45.488;12.238;2022-09-29T10:34:01;22.70;80.70
38788;DHT22;24536;45.488;12.238;2022-09-29T10:36:46;22.80;80.60
38788;DHT22;24536;45.488;12.238;2022-09-29T10:41:57;22.90;80.00
38788;DHT22;24536;45.488;12.238;2022-09-29T10:44:23;23.00;80.40
38788;DHT22;24536;45.488;12.238;2022-09-29T10:46:53;23.10;80.20
38788;DHT22;24536;45.488;12.238;2022-09-29T10:49:21;23.20;79.10
38788;DHT22;24536;45.488;12.238;2022-09-29T10:52:04;23.20;79.60
38788;DHT22;24536;45.488;12.238;2022-09-29T10:54:39;23.20;78.50
38788;DHT22;24536;45.488;12.238;2022-09-29T10:57:24;23.20;78.60
38788;DHT22;24536;45.488;12.238;2022-09-29T10:59:52;23.10;78.90
38788;DHT22;24536;45.488;12.238;2022-09-29T11:02:37;23.30;79.40
38788;DHT22;24536;45.488;12.238;2022-09-29T11:05:21;23.50;77.80
38788;DHT22;24536;45.488;12.238;2022-09-29T11:07:52;23.60;76.90
38788;DHT22;24536;45.488;12.238;2022-09-29T11:12:53;23.40;77.00
38788;DHT22;24536;45.488;12.238;2022-09-29T11:15:38;23.60;77.90
38788;DHT22;24536;45.488;12.238;2022-09-29T11:18:27;23.80;77.20
38788;DHT22;24536;45.488;12.238;2022-09-29T11:21:30;23.90;77.30
38788;DHT22;24536;45.488;12.238;2022-09-29T11:30:03;23.80;76.50
38788;DHT22;24536;45.488;12.238;2022-09-29T12:00:50;25.90;72.40
38788;DHT22;24536;45.488;12.238;2022-09-29T12:03:42;26.50;71.50
38788;DHT22;24536;45.488;12.238;2022-09-29T12:17:14;27.80;67.30
38788;DHT22;24536;45.488;12.238;2022-09-29T12:19:42;28.00;66.50
38788;DHT22;24536;45.488;12.238;2022-09-29T12:22:14;28.00;65.50
38788;DHT22;24536;45.488;12.238;2022-09-29T12:24:45;28.10;65.00
38788;DHT22;24536;45.488;12.238;2022-09-29T12:27:22;27.90;64.80
38788;DHT22;24536;45.488;12.238;2022-09-29T12:29:56;28.00;65.60
38788;DHT22;24536;45.488;12.238;2022-09-29T12:32:34;28.20;64.50
38788;DHT22;24536;45.488;12.238;2022-09-29T12:35:15;28.10;63.50
38788;DHT22;24536;45.488;12.238;2022-09-29T12:37:56;28.10;63.60
38788;DHT22;24536;45.488;12.238;2022-09-29T12:40:32;28.10;64.20
38788;DHT22;24536;45.488;12.238;2022-09-29T12:46:15;28.10;64.50
38788;DHT22;24536;45.488;12.238;2022-09-29T12:52:20;27.50;64.00
38788;DHT22;24536;45.488;12.238;2022-09-29T12:54:54;27.20;64.80
38788;DHT22;24536;45.488;12.238;2022-09-29T12:57:25;26.90;65.40
38788;DHT22;24536;45.488;12.238;2022-09-29T13:00:13;26.70;66.00
38788;DHT22;24536;45.488;12.238;2022-09-29T13:27:42;25.30;68.70
38788;DHT22;24536;45.488;12.238;2022-09-29T13:30:19;25.30;69.10
38788;DHT22;24536;45.488;12.238;2022-09-29T13:33:24;25.20;69.00
38788;DHT22;24536;45.488;12.238;2022-09-29T13:35:51;25.20;69.40
38788;DHT22;24536;45.488;12.238;2022-09-29T13:38:31;25.10;69.30
38788;DHT22;24536;45.488;12.238;2022-09-29T13:44:03;25.00;69.90
38788;DHT22;24536;45.488;12.238;2022-09-29T13:57:17;24.80;72.40
38788;DHT22;24536;45.488;12.238;2022-09-29T14:00:13;24.80;72.70
38788;DHT22;24536;45.488;12.238;2022-09-29T14:02:46;24.70;72.90
38788;DHT22;24536;45.488;12.238;2022-09-29T14:13:02;24.40;72.90
38788;DHT22;24536;45.488;12.238;2022-09-29T14:15:49;24.30;74.30
38788;DHT22;24536;45.488;12.238;2022-09-29T14:19:21;24.10;77.30
38788;DHT22;24536;45.488;12.238;2022-09-29T14:21:57;24.00;80.40
38788;DHT22;24536;45.488;12.238;2022-09-29T14:27:27;23.60;83.20
38788;DHT22;24536;45.488;12.238;2022-09-29T14:32:55;23.50;85.60
38788;DHT22;24536;45.488;12.238;2022-09-29T14:40:34;23.40;87.00
38788;DHT22;24536;45.488;12.238;2022-09-29T14:43:16;23.30;87.10
38788;DHT22;24536;45.488;12.238;2022-09-29T14:51:56;23.10;88.00
38788;DHT22;24536;45.488;12.238;2022-09-29T14:54:41;23.10;88.30
38788;DHT22;24536;45.488;12.238;2022-09-29T14:57:44;23.10;88.60
38788;DHT22;24536;45.488;12.238;2022-09-29T15:00:18;23.00;88.30
38788;DHT22;24536;45.488;12.238;2022-09-29T15:02:51;23.00;88.30
38788;DHT22;24536;45.488;12.238;2022-09-29T15:05:28;22.90;88.00
38788;DHT22;24536;45.488;12.238;2022-09-29T15:07:54;22.90;88.20
38788;DHT22;24536;45.488;12.238;2022-09-29T15:10:28;22.90;88.50
38788;DHT22;24536;45.488;12.238;2022-09-29T15:15:49;22.80;89.20
38788;DHT22;24536;45.488;12.238;2022-09-29T15:23:55;22.80;89.90
38788;DHT22;24536;45.488;12.238;2022-09-29T15:26:25;22.80;90.00
38788;DHT22;24536;45.488;12.238;2022-09-29T15:28:54;22.80;89.70
38788;DHT22;24536;45.488;12.238;2022-09-29T15:31:27;22.70;89.80
38788;DHT22;24536;45.488;12.238;2022-09-29T15:33:53;22.70;90.00
38788;DHT22;24536;45.488;12.238;2022-09-29T15:36:20;22.70;90.00
38788;DHT22;24536;45.488;12.238;2022-09-29T15:38:47;22.70;90.10
38788;DHT22;24536;45.488;12.238;2022-09-29T15:41:18;22.70;90.20
38788;DHT22;24536;45.488;12.238;2022-09-29T15:43:58;22.70;90.30
38788;DHT22;24536;45.488;12.238;2022-09-29T15:46:37;22.70;90.20
38788;DHT22;24536;45.488;12.238;2022-09-29T15:51:52;22.60;89.50
38788;DHT22;24536;45.488;12.238;2022-09-29T15:54:19;22.60;89.70
38788;DHT22;24536;45.488;12.238;2022-09-29T15:56:46;22.60;90.00
38788;DHT22;24536;45.488;12.238;2022-09-29T15:59:44;22.50;90.00
38788;DHT22;24536;45.488;12.238;2022-09-29T16:02:30;22.50;90.00
38788;DHT22;24536;45.488;12.238;2022-09-29T16:05:06;22.50;89.70
38788;DHT22;24536;45.488;12.238;2022-09-29T16:07:37;22.40;88.80
38788;DHT22;24536;45.488;12.238;2022-09-29T16:10:17;22.40;86.90
38788;DHT22;24536;45.488;12.238;2022-09-29T16:13:19;22.40;86.40
38788;DHT22;24536;45.488;12.238;2022-09-29T16:15:48;22.30;85.40
38788;DHT22;24536;45.488;12.238;2022-09-29T16:18:28;22.30;85.40
38788;DHT22;24536;45.488;12.238;2022-09-29T16:20:56;22.40;85.40
38788;DHT22;24536;45.488;12.238;2022-09-29T16:23:28;22.30;85.30
38788;DHT22;24536;45.488;12.238;2022-09-29T16:28:32;22.20;86.10
38788;DHT22;24536;45.488;12.238;2022-09-29T16:31:04;22.20;86.30
38788;DHT22;24536;45.488;12.238;2022-09-29T16:33:33;22.20;86.90
38788;DHT22;24536;45.488;12.238;2022-09-29T16:36:14;22.20;87.10
38788;DHT22;24536;45.488;12.238;2022-09-29T16:38:46;22.20;87.20
38788;DHT22;24536;45.488;12.238;2022-09-29T16:41:32;22.20;87.00
38788;DHT22;24536;45.488;12.238;2022-09-29T16:46:54;22.20;86.00
38788;DHT22;24536;45.488;12.238;2022-09-29T16:49:23;22.10;85.70
38788;DHT22;24536;45.488;12.238;2022-09-29T16:51:50;22.10;85.70
38788;DHT22;24536;45.488;12.238;2022-09-29T16:54:23;22.10;85.70
38788;DHT22;24536;45.488;12.238;2022-09-29T16:59:37;22.00;85.70
38788;DHT22;24536;45.488;12.238;2022-09-29T17:02:08;22.00;85.90
38788;DHT22;24536;45.488;12.238;2022-09-29T17:04:34;22.00;86.50
38788;DHT22;24536;45.488;12.238;2022-09-29T17:07:00;22.00;86.60
38788;DHT22;24536;45.488;12.238;2022-09-29T17:09:27;21.90;86.40
38788;DHT22;24536;45.488;12.238;2022-09-29T17:11:53;21.80;86.70
38788;DHT22;24536;45.488;12.238;2022-09-29T17:14:19;21.80;87.10
38788;DHT22;24536;45.488;12.238;2022-09-29T17:16:46;21.80;86.20
38788;DHT22;24536;45.488;12.238;2022-09-29T17:19:14;21.60;85.00
38788;DHT22;24536;45.488;12.238;2022-09-29T17:21:41;21.60;85.50
38788;DHT22;24536;45.488;12.238;2022-09-29T17:24:07;21.60;86.00
38788;DHT22;24536;45.488;12.238;2022-09-29T17:26:45;21.50;86.30
38788;DHT22;24536;45.488;12.238;2022-09-29T17:29:30;21.50;86.70
38788;DHT22;24536;45.488;12.238;2022-09-29T17:31:55;21.50;86.90
38788;DHT22;24536;45.488;12.238;2022-09-29T17:34:21;21.50;87.40
38788;DHT22;24536;45.488;12.238;2022-09-29T17:36:53;21.50;87.80
38788;DHT22;24536;45.488;12.238;2022-09-29T17:39:20;21.50;88.10
38788;DHT22;24536;45.488;12.238;2022-09-29T17:41:46;21.50;88.50
38788;DHT22;24536;45.488;12.238;2022-09-29T17:44:13;21.50;88.90
38788;DHT22;24536;45.488;12.238;2022-09-29T17:46:39;21.40;88.50
38788;DHT22;24536;45.488;12.238;2022-09-29T17:49:12;21.40;88.40
38788;DHT22;24536;45.488;12.238;2022-09-29T17:51:38;21.20;86.60
38788;DHT22;24536;45.488;12.238;2022-09-29T17:54:04;20.80;86.90
38788;DHT22;24536;45.488;12.238;2022-09-29T17:56:30;20.60;87.90
38788;DHT22;24536;45.488;12.238;2022-09-29T17:59:03;20.50;88.00
38788;DHT22;24536;45.488;12.238;2022-09-29T18:01:30;20.40;88.50
38788;DHT22;24536;45.488;12.238;2022-09-29T18:04:01;20.30;88.60
38788;DHT22;24536;45.488;12.238;2022-09-29T18:06:27;20.20;88.80
38788;DHT22;24536;45.488;12.238;2022-09-29T18:08:54;20.30;88.80
38788;DHT22;24536;45.488;12.238;2022-09-29T18:11:23;20.30;89.10
38788;DHT22;24536;45.488;12.238;2022-09-29T18:13:50;20.30;89.20
38788;DHT22;24536;45.488;12.238;2022-09-29T18:16:18;20.30;89.20
38788;DHT22;24536;45.488;12.238;2022-09-29T18:18:44;20.20;89.30
38788;DHT22;24536;45.488;12.238;2022-09-29T18:21:11;20.20;89.20
38788;DHT22;24536;45.488;12.238;2022-09-29T18:23:37;20.20;89.50
38788;DHT22;24536;45.488;12.238;2022-09-29T18:26:04;20.20;89.70
38788;DHT22;24536;45.488;12.238;2022-09-29T18:28:31;20.30;89.90
38788;DHT22;24536;45.488;12.238;2022-09-29T18:31:21;20.20;89.80
38788;DHT22;24536;45.488;12.238;2022-09-29T18:33:47;20.30;90.00
38788;DHT22;24536;45.488;12.238;2022-09-29T18:36:13;20.20;90.10
38788;DHT22;24536;45.488;12.238;2022-09-29T18:38:38;20.10;90.30
38788;DHT22;24536;45.488;12.238;2022-09-29T18:41:05;20.00;90.50
38788;DHT22;24536;45.488;12.238;2022-09-29T18:43:34;19.90;90.30
38788;DHT22;24536;45.488;12.238;2022-09-29T18:46:01;19.80;90.60
38788;DHT22;24536;45.488;12.238;2022-09-29T18:48:26;19.70;90.80
38788;DHT22;24536;45.488;12.238;2022-09-29T18:50:52;19.60;90.80
38788;DHT22;24536;45.488;12.238;2022-09-29T18:53:20;19.60;90.80
38788;DHT22;24536;45.488;12.238;2022-09-29T18:55:46;19.60;91.00
38788;DHT22;24536;45.488;12.238;2022-09-29T18:58:18;19.40;91.30
38788;DHT22;24536;45.488;12.238;2022-09-29T19:00:46;19.30;91.60
38788;DHT22;24536;45.488;12.238;2022-09-29T19:03:15;19.30;91.40
38788;DHT22;24536;45.488;12.238;2022-09-29T19:05:42;19.20;91.70